Main page
METAR-TAF:

METAR-TAF

Airports :

Brighton City Airport (Shoreham Airport)

Brighton, England

latitude: 50-50N, longitude: 000-17W, elevation: 2 m

Current weather observation

The report was made 23 minutes ago, at 13:20 UTC
Wind 13 kt from the East
Temperature 14°C
Humidity 67%
Pressure 1013 hPa
Visibility 10 km or more
no clouds below 1500 m and no cumulonimbus

METAR: EGKA 051320Z 10013KT CAVOK 14/08 Q1013

Time: 14:43 (13:43 UTC)

Forecast

The report was made 2 hours and 44 minutes ago, at 10:59 UTC
Forecast valid from 05 at 12 UTC to 05 at 17 UTC
Wind 11 kt from the East/Southeast
Visibility 10 km or more
no clouds below 1500 m and no cumulonimbus
Temporary
from 05 at 12 UTC to 05 at 17 UTC
Wind 15 kt from the Southeast with gusts up to 25 kt

TAF: EGKA 051059Z 0512/0517 12011KT CAVOK TEMPO 0512/0517 13015G25KT

Weather observations and forecasts of more than 4000 airports (METAR and TAF reports).

The available stations are represented by yellow and red dots on the map.

Hover mouse over dot to see the name of the station.

Then click to see weather observations and forecasts.

To change the map : click on the green buttons with a black cross to zoom in, on the green button with a dash to zoom out, or on the green arrows for adjacent maps.


METAR-TAF: